sensor_id;sensor_type;location;lat;lon;timestamp;P1;durP1;ratioP1;P2;durP2;ratioP2
12418;SDS011;6273;52.312;9.178;2022-09-28T00:00:06;8.17;;;6.03;;
12418;SDS011;6273;52.312;9.178;2022-09-28T00:02:32;10.20;;;5.33;;
12418;SDS011;6273;52.312;9.178;2022-09-28T00:04:59;5.93;;;5.30;;
12418;SDS011;6273;52.312;9.178;2022-09-28T00:07:26;6.20;;;5.60;;
12418;SDS011;6273;52.312;9.178;2022-09-28T00:09:52;6.83;;;5.20;;
12418;SDS011;6273;52.312;9.178;2022-09-28T00:12:18;5.57;;;4.77;;
12418;SDS011;6273;52.312;9.178;2022-09-28T00:14:45;5.47;;;4.87;;
12418;SDS011;6273;52.312;9.178;2022-09-28T00:17:11;5.90;;;4.80;;
12418;SDS011;6273;52.312;9.178;2022-09-28T00:19:37;5.70;;;4.90;;
12418;SDS011;6273;52.312;9.178;2022-09-28T00:22:04;6.10;;;4.90;;
12418;SDS011;6273;52.312;9.178;2022-09-28T00:24:30;8.73;;;5.53;;
12418;SDS011;6273;52.312;9.178;2022-09-28T00:26:56;8.20;;;5.27;;
12418;SDS011;6273;52.312;9.178;2022-09-28T00:31:58;11.13;;;5.60;;
12418;SDS011;6273;52.312;9.178;2022-09-28T00:34:26;7.83;;;6.23;;
12418;SDS011;6273;52.312;9.178;2022-09-28T00:36:55;6.20;;;5.60;;
12418;SDS011;6273;52.312;9.178;2022-09-28T00:39:22;13.60;;;5.80;;
12418;SDS011;6273;52.312;9.178;2022-09-28T00:41:48;9.13;;;6.47;;
12418;SDS011;6273;52.312;9.178;2022-09-28T00:49:43;8.07;;;7.20;;
12418;SDS011;6273;52.312;9.178;2022-09-28T00:52:14;8.03;;;6.63;;
12418;SDS011;6273;52.312;9.178;2022-09-28T00:54:46;9.90;;;6.80;;
12418;SDS011;6273;52.312;9.178;2022-09-28T00:57:14;9.03;;;7.23;;
12418;SDS011;6273;52.312;9.178;2022-09-28T00:59:41;8.90;;;8.00;;
12418;SDS011;6273;52.312;9.178;2022-09-28T01:02:07;16.87;;;8.37;;
12418;SDS011;6273;52.312;9.178;2022-09-28T01:04:34;13.50;;;8.37;;
12418;SDS011;6273;52.312;9.178;2022-09-28T01:07:01;9.97;;;8.20;;
12418;SDS011;6273;52.312;9.178;2022-09-28T01:09:27;8.17;;;6.40;;
12418;SDS011;6273;52.312;9.178;2022-09-28T01:11:53;5.60;;;4.90;;
12418;SDS011;6273;52.312;9.178;2022-09-28T01:14:19;4.80;;;4.40;;
12418;SDS011;6273;52.312;9.178;2022-09-28T01:22:47;7.17;;;4.30;;
12418;SDS011;6273;52.312;9.178;2022-09-28T01:28:11;6.30;;;4.20;;
12418;SDS011;6273;52.312;9.178;2022-09-28T01:33:34;6.90;;;3.90;;
12418;SDS011;6273;52.312;9.178;2022-09-28T01:36:41;4.37;;;3.93;;
12418;SDS011;6273;52.312;9.178;2022-09-28T01:39:14;10.00;;;4.33;;
12418;SDS011;6273;52.312;9.178;2022-09-28T01:41:44;5.60;;;3.17;;
12418;SDS011;6273;52.312;9.178;2022-09-28T01:44:13;4.03;;;3.63;;
12418;SDS011;6273;52.312;9.178;2022-09-28T01:46:43;7.13;;;4.00;;
12418;SDS011;6273;52.312;9.178;2022-09-28T01:49:17;5.90;;;4.00;;
12418;SDS011;6273;52.312;9.178;2022-09-28T01:54:21;6.43;;;3.80;;
12418;SDS011;6273;52.312;9.178;2022-09-28T02:00:09;4.37;;;4.00;;
12418;SDS011;6273;52.312;9.178;2022-09-28T02:02:38;4.07;;;3.67;;
12418;SDS011;6273;52.312;9.178;2022-09-28T02:05:23;5.07;;;4.20;;
12418;SDS011;6273;52.312;9.178;2022-09-28T02:08:01;4.30;;;3.63;;
12418;SDS011;6273;52.312;9.178;2022-09-28T02:10:40;4.60;;;2.90;;
12418;SDS011;6273;52.312;9.178;2022-09-28T02:16:05;3.97;;;3.67;;
12418;SDS011;6273;52.312;9.178;2022-09-28T02:18:52;2.83;;;2.73;;
12418;SDS011;6273;52.312;9.178;2022-09-28T02:24:17;3.50;;;3.10;;
12418;SDS011;6273;52.312;9.178;2022-09-28T02:26:48;3.20;;;3.00;;
12418;SDS011;6273;52.312;9.178;2022-09-28T02:29:16;7.57;;;3.40;;
12418;SDS011;6273;52.312;9.178;2022-09-28T02:31:41;3.57;;;3.37;;
12418;SDS011;6273;52.312;9.178;2022-09-28T02:34:07;3.63;;;3.33;;
12418;SDS011;6273;52.312;9.178;2022-09-28T02:36:33;3.93;;;3.70;;
12418;SDS011;6273;52.312;9.178;2022-09-28T02:39:00;4.70;;;4.23;;
12418;SDS011;6273;52.312;9.178;2022-09-28T02:41:40;5.53;;;3.20;;
12418;SDS011;6273;52.312;9.178;2022-09-28T02:44:40;3.77;;;3.47;;
12418;SDS011;6273;52.312;9.178;2022-09-28T02:50:12;5.13;;;4.17;;
12418;SDS011;6273;52.312;9.178;2022-09-28T02:57:50;4.00;;;3.70;;
12418;SDS011;6273;52.312;9.178;2022-09-28T03:00:25;4.33;;;3.37;;
12418;SDS011;6273;52.312;9.178;2022-09-28T03:03:06;4.07;;;3.77;;
12418;SDS011;6273;52.312;9.178;2022-09-28T03:08:33;4.43;;;4.00;;
12418;SDS011;6273;52.312;9.178;2022-09-28T03:11:13;5.03;;;4.53;;
12418;SDS011;6273;52.312;9.178;2022-09-28T03:13:43;4.13;;;3.33;;
12418;SDS011;6273;52.312;9.178;2022-09-28T03:16:10;4.50;;;4.03;;
12418;SDS011;6273;52.312;9.178;2022-09-28T03:18:37;2.70;;;2.50;;
12418;SDS011;6273;52.312;9.178;2022-09-28T03:21:03;3.27;;;2.47;;
12418;SDS011;6273;52.312;9.178;2022-09-28T03:23:30;4.80;;;3.50;;
12418;SDS011;6273;52.312;9.178;2022-09-28T03:25:56;2.80;;;2.60;;
12418;SDS011;6273;52.312;9.178;2022-09-28T03:28:21;4.33;;;3.40;;
12418;SDS011;6273;52.312;9.178;2022-09-28T03:30:47;3.80;;;3.10;;
12418;SDS011;6273;52.312;9.178;2022-09-28T03:33:13;3.53;;;3.23;;
12418;SDS011;6273;52.312;9.178;2022-09-28T03:35:39;8.63;;;3.17;;
12418;SDS011;6273;52.312;9.178;2022-09-28T03:38:05;3.60;;;3.30;;
12418;SDS011;6273;52.312;9.178;2022-09-28T03:40:30;2.90;;;2.70;;
12418;SDS011;6273;52.312;9.178;2022-09-28T03:42:56;2.40;;;2.03;;
12418;SDS011;6273;52.312;9.178;2022-09-28T03:45:23;2.30;;;2.10;;
12418;SDS011;6273;52.312;9.178;2022-09-28T03:47:49;1.90;;;1.80;;
12418;SDS011;6273;52.312;9.178;2022-09-28T03:50:14;1.70;;;1.60;;
12418;SDS011;6273;52.312;9.178;2022-09-28T03:52:40;4.90;;;2.27;;
12418;SDS011;6273;52.312;9.178;2022-09-28T03:55:06;3.47;;;2.60;;
12418;SDS011;6273;52.312;9.178;2022-09-28T03:57:32;2.43;;;2.23;;
12418;SDS011;6273;52.312;9.178;2022-09-28T03:59:57;3.20;;;1.90;;
12418;SDS011;6273;52.312;9.178;2022-09-28T04:02:23;1.70;;;1.60;;
12418;SDS011;6273;52.312;9.178;2022-09-28T04:04:48;1.33;;;1.23;;
12418;SDS011;6273;52.312;9.178;2022-09-28T04:07:14;1.73;;;1.63;;
12418;SDS011;6273;52.312;9.178;2022-09-28T04:09:39;1.30;;;1.20;;
12418;SDS011;6273;52.312;9.178;2022-09-28T04:12:05;0.93;;;0.93;;
12418;SDS011;6273;52.312;9.178;2022-09-28T04:14:31;1.50;;;1.40;;
12418;SDS011;6273;52.312;9.178;2022-09-28T04:16:56;2.30;;;1.60;;
12418;SDS011;6273;52.312;9.178;2022-09-28T04:19:22;1.57;;;1.30;;
12418;SDS011;6273;52.312;9.178;2022-09-28T04:21:48;2.00;;;1.90;;
12418;SDS011;6273;52.312;9.178;2022-09-28T04:24:15;1.70;;;1.60;;
12418;SDS011;6273;52.312;9.178;2022-09-28T04:26:41;1.60;;;1.50;;
12418;SDS011;6273;52.312;9.178;2022-09-28T04:29:09;2.40;;;2.30;;
12418;SDS011;6273;52.312;9.178;2022-09-28T04:34:11;5.97;;;3.00;;
12418;SDS011;6273;52.312;9.178;2022-09-28T04:36:39;3.27;;;2.97;;
12418;SDS011;6273;52.312;9.178;2022-09-28T04:39:05;2.93;;;2.73;;
12418;SDS011;6273;52.312;9.178;2022-09-28T04:41:31;7.17;;;2.90;;
12418;SDS011;6273;52.312;9.178;2022-09-28T04:43:57;2.90;;;2.70;;
12418;SDS011;6273;52.312;9.178;2022-09-28T04:46:22;2.37;;;2.27;;
12418;SDS011;6273;52.312;9.178;2022-09-28T04:48:48;3.03;;;2.80;;
12418;SDS011;6273;52.312;9.178;2022-09-28T04:51:14;3.77;;;3.47;;
12418;SDS011;6273;52.312;9.178;2022-09-28T04:53:39;3.23;;;3.03;;
12418;SDS011;6273;52.312;9.178;2022-09-28T04:56:06;3.10;;;2.90;;
12418;SDS011;6273;52.312;9.178;2022-09-28T04:58:34;3.50;;;3.20;;
12418;SDS011;6273;52.312;9.178;2022-09-28T05:01:02;2.30;;;2.20;;
12418;SDS011;6273;52.312;9.178;2022-09-28T05:03:30;2.83;;;2.63;;
12418;SDS011;6273;52.312;9.178;2022-09-28T05:05:55;3.30;;;2.50;;
12418;SDS011;6273;52.312;9.178;2022-09-28T05:08:21;2.90;;;2.70;;
12418;SDS011;6273;52.312;9.178;2022-09-28T05:10:46;4.53;;;3.03;;
12418;SDS011;6273;52.312;9.178;2022-09-28T05:13:12;3.43;;;3.17;;
12418;SDS011;6273;52.312;9.178;2022-09-28T05:15:39;4.97;;;3.97;;
12418;SDS011;6273;52.312;9.178;2022-09-28T05:18:06;3.03;;;2.83;;
12418;SDS011;6273;52.312;9.178;2022-09-28T05:20:32;7.90;;;7.20;;
12418;SDS011;6273;52.312;9.178;2022-09-28T05:23:03;4.90;;;4.50;;
12418;SDS011;6273;52.312;9.178;2022-09-28T05:25:29;3.40;;;3.20;;
12418;SDS011;6273;52.312;9.178;2022-09-28T05:27:54;2.93;;;2.73;;
12418;SDS011;6273;52.312;9.178;2022-09-28T05:30:21;4.27;;;3.13;;
12418;SDS011;6273;52.312;9.178;2022-09-28T05:32:47;3.90;;;3.60;;
12418;SDS011;6273;52.312;9.178;2022-09-28T05:35:15;4.27;;;3.97;;
12418;SDS011;6273;52.312;9.178;2022-09-28T05:37:41;2.83;;;2.63;;
12418;SDS011;6273;52.312;9.178;2022-09-28T05:40:07;3.67;;;3.47;;
12418;SDS011;6273;52.312;9.178;2022-09-28T05:42:33;3.23;;;2.80;;
12418;SDS011;6273;52.312;9.178;2022-09-28T05:44:59;3.93;;;3.63;;
12418;SDS011;6273;52.312;9.178;2022-09-28T05:47:25;4.10;;;3.70;;
12418;SDS011;6273;52.312;9.178;2022-09-28T05:49:51;7.10;;;6.40;;
12418;SDS011;6273;52.312;9.178;2022-09-28T05:52:18;4.97;;;4.43;;
12418;SDS011;6273;52.312;9.178;2022-09-28T05:54:44;5.67;;;4.97;;
12418;SDS011;6273;52.312;9.178;2022-09-28T05:57:10;4.60;;;4.20;;
12418;SDS011;6273;52.312;9.178;2022-09-28T05:59:35;5.10;;;4.40;;
12418;SDS011;6273;52.312;9.178;2022-09-28T06:02:02;5.33;;;4.30;;
12418;SDS011;6273;52.312;9.178;2022-09-28T06:04:28;4.90;;;3.87;;
12418;SDS011;6273;52.312;9.178;2022-09-28T06:06:54;3.97;;;3.67;;
12418;SDS011;6273;52.312;9.178;2022-09-28T06:09:20;4.60;;;4.00;;
12418;SDS011;6273;52.312;9.178;2022-09-28T06:11:47;5.63;;;4.60;;
12418;SDS011;6273;52.312;9.178;2022-09-28T06:14:14;6.50;;;4.80;;
12418;SDS011;6273;52.312;9.178;2022-09-28T06:16:39;8.63;;;5.97;;
12418;SDS011;6273;52.312;9.178;2022-09-28T06:19:06;6.90;;;5.40;;
12418;SDS011;6273;52.312;9.178;2022-09-28T06:21:32;8.40;;;5.13;;
12418;SDS011;6273;52.312;9.178;2022-09-28T06:23:58;8.97;;;6.03;;
12418;SDS011;6273;52.312;9.178;2022-09-28T06:26:23;6.10;;;5.37;;
12418;SDS011;6273;52.312;9.178;2022-09-28T06:28:49;6.50;;;5.30;;
12418;SDS011;6273;52.312;9.178;2022-09-28T06:31:15;6.50;;;5.90;;
12418;SDS011;6273;52.312;9.178;2022-09-28T06:33:41;8.37;;;7.00;;
12418;SDS011;6273;52.312;9.178;2022-09-28T06:36:07;8.90;;;6.87;;
12418;SDS011;6273;52.312;9.178;2022-09-28T06:38:33;9.33;;;7.97;;
12418;SDS011;6273;52.312;9.178;2022-09-28T06:40:59;8.07;;;6.63;;
12418;SDS011;6273;52.312;9.178;2022-09-28T06:43:24;7.17;;;6.43;;
12418;SDS011;6273;52.312;9.178;2022-09-28T06:45:52;9.93;;;7.00;;
12418;SDS011;6273;52.312;9.178;2022-09-28T06:48:18;9.23;;;6.97;;
12418;SDS011;6273;52.312;9.178;2022-09-28T06:50:44;8.40;;;7.57;;
12418;SDS011;6273;52.312;9.178;2022-09-28T06:53:10;7.17;;;6.47;;
12418;SDS011;6273;52.312;9.178;2022-09-28T06:55:41;6.83;;;6.13;;
12418;SDS011;6273;52.312;9.178;2022-09-28T06:58:09;5.67;;;5.17;;
12418;SDS011;6273;52.312;9.178;2022-09-28T07:00:36;6.70;;;6.00;;
12418;SDS011;6273;52.312;9.178;2022-09-28T07:03:03;6.77;;;5.67;;
12418;SDS011;6273;52.312;9.178;2022-09-28T07:05:35;6.47;;;5.90;;
12418;SDS011;6273;52.312;9.178;2022-09-28T07:08:05;4.60;;;4.20;;
12418;SDS011;6273;52.312;9.178;2022-09-28T07:10:31;5.50;;;5.00;;
12418;SDS011;6273;52.312;9.178;2022-09-28T07:12:58;13.90;;;6.43;;
12418;SDS011;6273;52.312;9.178;2022-09-28T07:15:26;6.53;;;5.90;;
12418;SDS011;6273;52.312;9.178;2022-09-28T07:18:00;7.07;;;6.47;;
12418;SDS011;6273;52.312;9.178;2022-09-28T07:20:26;7.23;;;6.07;;
12418;SDS011;6273;52.312;9.178;2022-09-28T07:22:58;6.70;;;6.03;;
12418;SDS011;6273;52.312;9.178;2022-09-28T07:25:25;7.80;;;7.03;;
12418;SDS011;6273;52.312;9.178;2022-09-28T07:27:54;10.23;;;7.70;;
12418;SDS011;6273;52.312;9.178;2022-09-28T07:30:21;9.17;;;7.60;;
12418;SDS011;6273;52.312;9.178;2022-09-28T07:32:50;9.63;;;7.90;;
12418;SDS011;6273;52.312;9.178;2022-09-28T07:35:16;7.50;;;6.67;;
12418;SDS011;6273;52.312;9.178;2022-09-28T07:37:41;12.33;;;8.00;;
12418;SDS011;6273;52.312;9.178;2022-09-28T07:40:07;10.70;;;7.60;;
12418;SDS011;6273;52.312;9.178;2022-09-28T07:42:52;8.10;;;6.90;;
12418;SDS011;6273;52.312;9.178;2022-09-28T07:45:18;8.47;;;7.73;;
12418;SDS011;6273;52.312;9.178;2022-09-28T07:47:53;9.63;;;7.17;;
12418;SDS011;6273;52.312;9.178;2022-09-28T07:50:19;10.60;;;8.10;;
12418;SDS011;6273;52.312;9.178;2022-09-28T07:52:46;9.20;;;7.63;;
12418;SDS011;6273;52.312;9.178;2022-09-28T07:55:11;10.37;;;8.17;;
12418;SDS011;6273;52.312;9.178;2022-09-28T07:57:37;9.23;;;7.67;;
12418;SDS011;6273;52.312;9.178;2022-09-28T08:00:04;10.07;;;7.47;;
12418;SDS011;6273;52.312;9.178;2022-09-28T08:02:32;9.47;;;6.77;;
12418;SDS011;6273;52.312;9.178;2022-09-28T08:04:59;8.73;;;6.47;;
12418;SDS011;6273;52.312;9.178;2022-09-28T08:07:25;7.53;;;6.70;;
12418;SDS011;6273;52.312;9.178;2022-09-28T08:09:51;5.20;;;4.70;;
12418;SDS011;6273;52.312;9.178;2022-09-28T08:12:16;5.27;;;4.73;;
12418;SDS011;6273;52.312;9.178;2022-09-28T08:14:43;9.80;;;5.67;;
12418;SDS011;6273;52.312;9.178;2022-09-28T08:17:10;5.30;;;4.80;;
12418;SDS011;6273;52.312;9.178;2022-09-28T08:19:36;6.20;;;4.57;;
12418;SDS011;6273;52.312;9.178;2022-09-28T08:22:20;4.40;;;4.00;;
12418;SDS011;6273;52.312;9.178;2022-09-28T08:24:47;3.73;;;3.33;;
12418;SDS011;6273;52.312;9.178;2022-09-28T08:27:13;3.63;;;3.27;;
12418;SDS011;6273;52.312;9.178;2022-09-28T08:29:40;3.57;;;3.13;;
12418;SDS011;6273;52.312;9.178;2022-09-28T08:32:07;3.50;;;3.20;;
12418;SDS011;6273;52.312;9.178;2022-09-28T08:34:34;2.60;;;2.40;;
12418;SDS011;6273;52.312;9.178;2022-09-28T08:37:01;3.70;;;3.30;;
12418;SDS011;6273;52.312;9.178;2022-09-28T08:39:26;3.10;;;2.90;;
12418;SDS011;6273;52.312;9.178;2022-09-28T08:41:57;3.23;;;3.00;;
12418;SDS011;6273;52.312;9.178;2022-09-28T08:44:43;3.10;;;2.90;;
12418;SDS011;6273;52.312;9.178;2022-09-28T08:47:22;3.80;;;3.40;;
12418;SDS011;6273;52.312;9.178;2022-09-28T08:50:16;3.27;;;2.97;;
12418;SDS011;6273;52.312;9.178;2022-09-28T08:52:45;2.93;;;2.73;;
12418;SDS011;6273;52.312;9.178;2022-09-28T08:55:17;5.27;;;3.03;;
12418;SDS011;6273;52.312;9.178;2022-09-28T08:57:57;2.40;;;2.30;;
12418;SDS011;6273;52.312;9.178;2022-09-28T09:00:54;1.77;;;1.67;;
12418;SDS011;6273;52.312;9.178;2022-09-28T09:03:29;3.13;;;2.87;;
12418;SDS011;6273;52.312;9.178;2022-09-28T09:08:58;3.10;;;2.43;;
12418;SDS011;6273;52.312;9.178;2022-09-28T09:11:57;3.10;;;2.23;;
12418;SDS011;6273;52.312;9.178;2022-09-28T09:14:42;2.10;;;2.00;;
12418;SDS011;6273;52.312;9.178;2022-09-28T09:23:15;1.50;;;1.40;;
12418;SDS011;6273;52.312;9.178;2022-09-28T09:25:47;1.90;;;1.40;;
12418;SDS011;6273;52.312;9.178;2022-09-28T09:52:23;1.70;;;1.60;;
12418;SDS011;6273;52.312;9.178;2022-09-28T09:54:59;1.90;;;1.80;;
12418;SDS011;6273;52.312;9.178;2022-09-28T09:57:33;1.73;;;1.63;;
12418;SDS011;6273;52.312;9.178;2022-09-28T10:00:12;1.37;;;1.27;;
12418;SDS011;6273;52.312;9.178;2022-09-28T10:02:39;1.70;;;1.60;;
12418;SDS011;6273;52.312;9.178;2022-09-28T10:07:38;1.50;;;1.40;;
12418;SDS011;6273;52.312;9.178;2022-09-28T10:10:10;1.80;;;1.70;;
12418;SDS011;6273;52.312;9.178;2022-09-28T10:12:39;1.17;;;1.00;;
12418;SDS011;6273;52.312;9.178;2022-09-28T10:15:05;1.60;;;1.50;;
12418;SDS011;6273;52.312;9.178;2022-09-28T10:17:32;1.00;;;1.00;;
12418;SDS011;6273;52.312;9.178;2022-09-28T10:20:00;1.43;;;1.33;;
12418;SDS011;6273;52.312;9.178;2022-09-28T10:22:29;2.23;;;1.50;;
12418;SDS011;6273;52.312;9.178;2022-09-28T10:24:56;1.73;;;1.63;;
12418;SDS011;6273;52.312;9.178;2022-09-28T10:27:25;2.20;;;2.00;;
12418;SDS011;6273;52.312;9.178;2022-09-28T10:29:55;1.77;;;1.67;;
12418;SDS011;6273;52.312;9.178;2022-09-28T10:32:25;1.53;;;1.43;;
12418;SDS011;6273;52.312;9.178;2022-09-28T10:37:56;1.33;;;1.23;;
12418;SDS011;6273;52.312;9.178;2022-09-28T10:40:53;1.63;;;1.30;;
12418;SDS011;6273;52.312;9.178;2022-09-28T10:43:29;1.70;;;1.60;;
12418;SDS011;6273;52.312;9.178;2022-09-28T10:46:02;1.50;;;1.40;;
12418;SDS011;6273;52.312;9.178;2022-09-28T10:51:11;5.53;;;1.50;;
12418;SDS011;6273;52.312;9.178;2022-09-28T10:53:37;2.40;;;1.80;;
12418;SDS011;6273;52.312;9.178;2022-09-28T10:56:04;2.53;;;1.70;;
12418;SDS011;6273;52.312;9.178;2022-09-28T10:58:41;2.40;;;1.57;;
12418;SDS011;6273;52.312;9.178;2022-09-28T11:01:12;1.30;;;1.20;;
12418;SDS011;6273;52.312;9.178;2022-09-28T11:04:02;1.40;;;1.30;;
12418;SDS011;6273;52.312;9.178;2022-09-28T11:06:36;1.33;;;1.23;;
12418;SDS011;6273;52.312;9.178;2022-09-28T11:09:18;1.43;;;1.30;;
12418;SDS011;6273;52.312;9.178;2022-09-28T11:11:51;1.77;;;1.13;;
12418;SDS011;6273;52.312;9.178;2022-09-28T11:14:32;1.50;;;1.40;;
12418;SDS011;6273;52.312;9.178;2022-09-28T11:20:35;1.80;;;1.70;;
12418;SDS011;6273;52.312;9.178;2022-09-28T11:22:58;3.73;;;1.43;;
12418;SDS011;6273;52.312;9.178;2022-09-28T11:25:40;1.37;;;1.27;;
12418;SDS011;6273;52.312;9.178;2022-09-28T11:28:17;2.20;;;1.50;;
12418;SDS011;6273;52.312;9.178;2022-09-28T11:30:51;1.70;;;1.60;;
12418;SDS011;6273;52.312;9.178;2022-09-28T11:33:51;2.40;;;2.30;;
12418;SDS011;6273;52.312;9.178;2022-09-28T11:41:31;1.70;;;1.60;;
12418;SDS011;6273;52.312;9.178;2022-09-28T11:52:09;1.47;;;1.37;;
12418;SDS011;6273;52.312;9.178;2022-09-28T11:55:04;1.80;;;1.43;;
12418;SDS011;6273;52.312;9.178;2022-09-28T11:57:35;1.60;;;1.50;;
12418;SDS011;6273;52.312;9.178;2022-09-28T12:00:06;1.67;;;1.57;;
12418;SDS011;6273;52.312;9.178;2022-09-28T12:02:50;2.67;;;1.50;;
12418;SDS011;6273;52.312;9.178;2022-09-28T12:05:48;1.90;;;1.80;;
12418;SDS011;6273;52.312;9.178;2022-09-28T12:08:29;2.40;;;1.60;;
12418;SDS011;6273;52.312;9.178;2022-09-28T12:13:31;3.50;;;1.80;;
12418;SDS011;6273;52.312;9.178;2022-09-28T12:16:03;1.87;;;1.77;;
12418;SDS011;6273;52.312;9.178;2022-09-28T12:18:52;1.57;;;1.47;;
12418;SDS011;6273;52.312;9.178;2022-09-28T12:24:20;1.40;;;1.07;;
12418;SDS011;6273;52.312;9.178;2022-09-28T12:27:03;22.60;;;19.17;;
12418;SDS011;6273;52.312;9.178;2022-09-28T12:32:31;4.10;;;2.53;;
12418;SDS011;6273;52.312;9.178;2022-09-28T12:35:14;11.77;;;10.73;;
12418;SDS011;6273;52.312;9.178;2022-09-28T12:38:16;1.70;;;1.60;;
12418;SDS011;6273;52.312;9.178;2022-09-28T12:40:56;2.70;;;1.80;;
12418;SDS011;6273;52.312;9.178;2022-09-28T12:43:37;2.50;;;1.23;;
12418;SDS011;6273;52.312;9.178;2022-09-28T12:51:53;5.40;;;2.67;;
12418;SDS011;6273;52.312;9.178;2022-09-28T13:00:46;1.30;;;1.20;;
12418;SDS011;6273;52.312;9.178;2022-09-28T13:03:14;2.23;;;1.40;;
12418;SDS011;6273;52.312;9.178;2022-09-28T13:12:31;2.40;;;2.20;;
12418;SDS011;6273;52.312;9.178;2022-09-28T13:18:13;3.97;;;2.23;;
12418;SDS011;6273;52.312;9.178;2022-09-28T13:21:02;2.10;;;2.00;;
12418;SDS011;6273;52.312;9.178;2022-09-28T13:24:02;2.30;;;2.10;;
12418;SDS011;6273;52.312;9.178;2022-09-28T13:26:27;2.90;;;2.13;;
12418;SDS011;6273;52.312;9.178;2022-09-28T13:28:57;3.43;;;2.00;;
12418;SDS011;6273;52.312;9.178;2022-09-28T13:31:33;4.87;;;2.20;;
12418;SDS011;6273;52.312;9.178;2022-09-28T13:34:04;2.60;;;2.40;;
12418;SDS011;6273;52.312;9.178;2022-09-28T13:36:34;4.03;;;2.67;;
12418;SDS011;6273;52.312;9.178;2022-09-28T13:39:01;2.27;;;2.00;;
12418;SDS011;6273;52.312;9.178;2022-09-28T13:41:28;2.83;;;2.53;;
12418;SDS011;6273;52.312;9.178;2022-09-28T13:46:43;3.10;;;2.60;;
12418;SDS011;6273;52.312;9.178;2022-09-28T13:51:49;4.60;;;2.87;;
12418;SDS011;6273;52.312;9.178;2022-09-28T13:57:39;5.63;;;3.27;;
12418;SDS011;6273;52.312;9.178;2022-09-28T14:05:49;3.90;;;3.07;;
12418;SDS011;6273;52.312;9.178;2022-09-28T14:16:35;2.33;;;2.23;;
12418;SDS011;6273;52.312;9.178;2022-09-28T14:24:14;3.80;;;2.87;;
12418;SDS011;6273;52.312;9.178;2022-09-28T14:26:57;2.30;;;2.20;;
12418;SDS011;6273;52.312;9.178;2022-09-28T14:29:41;2.70;;;2.50;;
12418;SDS011;6273;52.312;9.178;2022-09-28T14:34:42;3.23;;;3.03;;
12418;SDS011;6273;52.312;9.178;2022-09-28T14:37:24;3.10;;;2.90;;
12418;SDS011;6273;52.312;9.178;2022-09-28T14:43:18;2.93;;;2.73;;
12418;SDS011;6273;52.312;9.178;2022-09-28T14:45:50;3.70;;;2.30;;
12418;SDS011;6273;52.312;9.178;2022-09-28T14:48:51;12.93;;;2.40;;
12418;SDS011;6273;52.312;9.178;2022-09-28T14:53:51;3.40;;;3.10;;
12418;SDS011;6273;52.312;9.178;2022-09-28T14:56:18;2.97;;;2.77;;
12418;SDS011;6273;52.312;9.178;2022-09-28T14:58:45;2.30;;;2.10;;
12418;SDS011;6273;52.312;9.178;2022-09-28T15:01:18;4.67;;;2.00;;
12418;SDS011;6273;52.312;9.178;2022-09-28T15:03:45;3.47;;;3.17;;
12418;SDS011;6273;52.312;9.178;2022-09-28T15:06:15;2.43;;;2.00;;
12418;SDS011;6273;52.312;9.178;2022-09-28T15:08:42;2.17;;;2.00;;
12418;SDS011;6273;52.312;9.178;2022-09-28T15:11:10;1.60;;;1.50;;
12418;SDS011;6273;52.312;9.178;2022-09-28T15:13:40;3.27;;;2.50;;
12418;SDS011;6273;52.312;9.178;2022-09-28T15:16:07;2.53;;;1.80;;
12418;SDS011;6273;52.312;9.178;2022-09-28T15:18:44;4.13;;;2.30;;
12418;SDS011;6273;52.312;9.178;2022-09-28T15:21:32;2.30;;;2.10;;
12418;SDS011;6273;52.312;9.178;2022-09-28T15:24:00;3.83;;;2.03;;
12418;SDS011;6273;52.312;9.178;2022-09-28T15:26:29;2.27;;;1.90;;
12418;SDS011;6273;52.312;9.178;2022-09-28T15:28:57;3.30;;;1.80;;
12418;SDS011;6273;52.312;9.178;2022-09-28T15:31:24;2.30;;;2.10;;
12418;SDS011;6273;52.312;9.178;2022-09-28T15:33:52;2.30;;;2.03;;
12418;SDS011;6273;52.312;9.178;2022-09-28T15:36:38;2.00;;;1.87;;
12418;SDS011;6273;52.312;9.178;2022-09-28T15:41:50;1.70;;;1.60;;
12418;SDS011;6273;52.312;9.178;2022-09-28T15:44:29;3.53;;;2.20;;
12418;SDS011;6273;52.312;9.178;2022-09-28T15:47:05;4.63;;;2.77;;
12418;SDS011;6273;52.312;9.178;2022-09-28T15:54:54;4.93;;;4.30;;
12418;SDS011;6273;52.312;9.178;2022-09-28T15:59:54;4.60;;;3.30;;
12418;SDS011;6273;52.312;9.178;2022-09-28T16:02:21;4.37;;;3.97;;
12418;SDS011;6273;52.312;9.178;2022-09-28T16:15:05;6.03;;;4.00;;
12418;SDS011;6273;52.312;9.178;2022-09-28T16:17:42;4.60;;;3.80;;
12418;SDS011;6273;52.312;9.178;2022-09-28T16:20:34;9.80;;;6.90;;
12418;SDS011;6273;52.312;9.178;2022-09-28T16:25:42;41.37;;;21.37;;
12418;SDS011;6273;52.312;9.178;2022-09-28T16:31:20;17.57;;;10.70;;
12418;SDS011;6273;52.312;9.178;2022-09-28T16:33:57;5.13;;;4.63;;
12418;SDS011;6273;52.312;9.178;2022-09-28T16:36:39;8.40;;;4.57;;
12418;SDS011;6273;52.312;9.178;2022-09-28T16:39:09;5.97;;;5.37;;
12418;SDS011;6273;52.312;9.178;2022-09-28T16:41:40;6.53;;;4.53;;
12418;SDS011;6273;52.312;9.178;2022-09-28T16:44:12;8.47;;;4.50;;
12418;SDS011;6273;52.312;9.178;2022-09-28T16:46:45;5.67;;;4.10;;
12418;SDS011;6273;52.312;9.178;2022-09-28T16:49:11;9.07;;;5.20;;
12418;SDS011;6273;52.312;9.178;2022-09-28T16:51:43;6.00;;;4.47;;
12418;SDS011;6273;52.312;9.178;2022-09-28T16:54:20;4.53;;;4.00;;
12418;SDS011;6273;52.312;9.178;2022-09-28T16:57:06;5.97;;;5.07;;
12418;SDS011;6273;52.312;9.178;2022-09-28T16:59:34;6.47;;;5.50;;
12418;SDS011;6273;52.312;9.178;2022-09-28T17:02:04;7.30;;;6.30;;
12418;SDS011;6273;52.312;9.178;2022-09-28T17:04:40;8.10;;;7.20;;
12418;SDS011;6273;52.312;9.178;2022-09-28T17:07:06;9.00;;;5.63;;
12418;SDS011;6273;52.312;9.178;2022-09-28T17:09:36;9.20;;;6.80;;
12418;SDS011;6273;52.312;9.178;2022-09-28T17:12:01;9.33;;;5.20;;
12418;SDS011;6273;52.312;9.178;2022-09-28T17:14:30;6.30;;;5.70;;
12418;SDS011;6273;52.312;9.178;2022-09-28T17:16:56;6.20;;;5.33;;
12418;SDS011;6273;52.312;9.178;2022-09-28T17:19:24;7.60;;;5.30;;
12418;SDS011;6273;52.312;9.178;2022-09-28T17:21:50;10.03;;;7.90;;
12418;SDS011;6273;52.312;9.178;2022-09-28T17:24:17;8.87;;;6.53;;
12418;SDS011;6273;52.312;9.178;2022-09-28T17:26:44;8.30;;;5.40;;
12418;SDS011;6273;52.312;9.178;2022-09-28T17:29:11;6.37;;;5.50;;
12418;SDS011;6273;52.312;9.178;2022-09-28T17:31:38;8.33;;;5.23;;
12418;SDS011;6273;52.312;9.178;2022-09-28T17:34:05;8.17;;;5.93;;
12418;SDS011;6273;52.312;9.178;2022-09-28T17:36:31;7.13;;;6.50;;
12418;SDS011;6273;52.312;9.178;2022-09-28T17:38:56;11.17;;;6.37;;
12418;SDS011;6273;52.312;9.178;2022-09-28T17:41:22;7.40;;;5.50;;
12418;SDS011;6273;52.312;9.178;2022-09-28T17:43:48;6.80;;;6.10;;
12418;SDS011;6273;52.312;9.178;2022-09-28T17:46:22;8.63;;;6.90;;
12418;SDS011;6273;52.312;9.178;2022-09-28T17:48:56;9.10;;;6.30;;
12418;SDS011;6273;52.312;9.178;2022-09-28T17:51:29;8.30;;;5.83;;
12418;SDS011;6273;52.312;9.178;2022-09-28T17:53:57;10.07;;;5.87;;
12418;SDS011;6273;52.312;9.178;2022-09-28T17:56:25;6.40;;;5.80;;
12418;SDS011;6273;52.312;9.178;2022-09-28T17:58:52;5.30;;;4.73;;
12418;SDS011;6273;52.312;9.178;2022-09-28T18:01:18;9.97;;;5.40;;
12418;SDS011;6273;52.312;9.178;2022-09-28T18:03:44;6.97;;;5.43;;
12418;SDS011;6273;52.312;9.178;2022-09-28T18:06:11;6.07;;;5.47;;
12418;SDS011;6273;52.312;9.178;2022-09-28T18:08:43;8.30;;;6.00;;
12418;SDS011;6273;52.312;9.178;2022-09-28T18:11:09;11.67;;;5.90;;
12418;SDS011;6273;52.312;9.178;2022-09-28T18:13:35;6.10;;;5.50;;
12418;SDS011;6273;52.312;9.178;2022-09-28T18:16:02;6.03;;;5.43;;
12418;SDS011;6273;52.312;9.178;2022-09-28T18:18:28;7.07;;;5.90;;
12418;SDS011;6273;52.312;9.178;2022-09-28T18:20:55;7.27;;;5.73;;
12418;SDS011;6273;52.312;9.178;2022-09-28T18:23:20;9.50;;;6.37;;
12418;SDS011;6273;52.312;9.178;2022-09-28T18:25:46;74.93;;;29.97;;
12418;SDS011;6273;52.312;9.178;2022-09-28T18:28:12;88.70;;;39.20;;
12418;SDS011;6273;52.312;9.178;2022-09-28T18:30:39;43.30;;;22.43;;
12418;SDS011;6273;52.312;9.178;2022-09-28T18:33:06;14.23;;;9.37;;
12418;SDS011;6273;52.312;9.178;2022-09-28T18:35:32;10.67;;;7.23;;